createdAt,value
2019-04-26T00:01:18.334Z,99009.83
2019-04-26T00:03:46.276Z,99020.58
2019-04-26T00:09:18.422Z,99028.75
2019-04-26T00:12:02.502Z,99031.55
2019-04-26T00:14:43.944Z,99032.27
2019-04-26T00:17:17.920Z,99032.61
2019-04-26T00:19:44.814Z,99027.72
2019-04-26T00:22:12.929Z,99029.20
2019-04-26T00:24:40.237Z,99030.50
2019-04-26T00:27:07.105Z,99025.09
2019-04-26T00:29:33.806Z,99024.50
2019-04-26T00:32:00.716Z,99018.68
2019-04-26T00:34:27.407Z,99014.73
2019-04-26T00:36:54.135Z,99017.72
2019-04-26T00:39:20.964Z,99014.98
2019-04-26T00:41:47.740Z,99017.41
2019-04-26T00:44:14.878Z,99018.37
2019-04-26T00:46:44.121Z,99019.85
2019-04-26T00:49:12.588Z,99031.10
2019-04-26T00:51:40.704Z,99033.08
2019-04-26T00:54:08.416Z,99035.05
2019-04-26T00:56:36.168Z,99029.17
2019-04-26T00:59:04.183Z,99016.16
2019-04-26T01:01:34.674Z,99015.02
2019-04-26T01:04:01.425Z,99013.88
2019-04-26T01:06:30.712Z,99020.69
2019-04-26T01:08:57.508Z,99016.86
2019-04-26T01:11:24.182Z,99012.25
2019-04-26T01:13:50.880Z,99006.37
2019-04-26T01:16:18.348Z,99005.38
2019-04-26T01:18:46.661Z,98985.30
2019-04-26T01:21:22.615Z,98983.00
2019-04-26T01:23:52.697Z,98978.84
2019-04-26T01:26:27.460Z,98976.84
2019-04-26T01:29:03.742Z,98961.80
2019-04-26T01:31:34.084Z,98964.67
2019-04-26T01:34:00.899Z,98958.27
2019-04-26T01:36:29.537Z,98945.06
2019-04-26T01:39:01.020Z,98948.61
2019-04-26T01:44:45.530Z,98965.91
2019-04-26T01:47:12.725Z,98976.50
2019-04-26T01:49:39.517Z,98987.78
2019-04-26T01:52:09.847Z,98990.03
2019-04-26T01:55:01.208Z,98999.70
2019-04-26T01:57:29.719Z,99006.25
2019-04-26T02:00:01.490Z,99013.16
2019-04-26T02:02:39.803Z,99021.62
2019-04-26T02:05:12.140Z,99023.59
2019-04-26T02:07:39.400Z,99020.77
2019-04-26T02:10:09.283Z,99022.53
2019-04-26T02:12:37.150Z,99026.98
2019-04-26T02:15:04.628Z,99030.95
2019-04-26T02:17:31.511Z,99021.59
2019-04-26T02:19:58.301Z,99016.72
2019-04-26T02:22:32.037Z,99015.09
2019-04-26T02:24:59.019Z,99017.29
2019-04-26T02:27:30.312Z,99013.62
2019-04-26T02:29:58.483Z,99024.50
2019-04-26T02:32:26.789Z,99031.30
2019-04-26T02:34:55.100Z,99038.55
2019-04-26T02:37:21.893Z,99038.83
2019-04-26T02:39:49.305Z,99044.34
2019-04-26T02:42:34.298Z,99053.42
2019-04-26T02:45:36.755Z,99048.33
2019-04-26T02:48:34.295Z,99059.86
2019-04-26T02:51:23.185Z,99063.14
2019-04-26T02:54:04.004Z,99059.51
2019-04-26T02:56:35.613Z,99056.55
2019-04-26T02:59:25.234Z,99056.64
2019-04-26T03:01:56.320Z,99048.07
2019-04-26T03:04:25.744Z,99042.20
2019-04-26T03:07:03.440Z,99039.56
2019-04-26T03:09:46.189Z,99034.86
2019-04-26T03:12:16.402Z,99033.04
2019-04-26T03:15:12.131Z,99037.28
2019-04-26T03:17:39.756Z,99034.32
2019-04-26T03:20:12.045Z,99035.13
2019-04-26T03:22:52.994Z,99036.75
2019-04-26T03:25:49.055Z,99043.03
2019-04-26T03:28:32.716Z,99045.38
2019-04-26T03:31:20.111Z,99049.36
2019-04-26T03:34:25.105Z,99053.36
2019-04-26T03:37:24.697Z,99055.53
2019-04-26T03:40:05.397Z,99067.36
2019-04-26T03:43:17.006Z,99066.82
2019-04-26T03:46:06.398Z,99077.48
2019-04-26T03:48:51.962Z,99078.91
2019-04-26T03:51:50.733Z,99063.21
2019-04-26T03:54:21.141Z,99052.61
2019-04-26T03:57:01.324Z,99047.06
2019-04-26T03:59:56.524Z,99043.78
2019-04-26T04:02:41.053Z,99052.98
2019-04-26T04:07:59.072Z,99071.77
2019-04-26T04:10:32.577Z,99076.95
2019-04-26T04:13:10.256Z,99071.39
2019-04-26T04:15:44.696Z,99057.38
2019-04-26T04:18:19.699Z,99049.28
2019-04-26T04:21:31.255Z,99042.85
2019-04-26T04:24:16.751Z,99062.08
2019-04-26T04:27:24.014Z,99096.33
2019-04-26T04:30:31.429Z,99110.66
2019-04-26T04:33:26.784Z,99125.03
2019-04-26T04:35:59.527Z,99128.95
2019-04-26T04:38:33.890Z,99129.66
2019-04-26T04:41:16.454Z,99111.73
2019-04-26T04:43:57.029Z,99105.60
2019-04-26T04:47:23.542Z,99095.20
2019-04-26T04:49:57.309Z,99094.55
2019-04-26T04:53:00.585Z,99079.07
2019-04-26T04:55:47.913Z,99071.03
2019-04-26T04:58:22.605Z,99068.24
2019-04-26T05:01:44.240Z,99077.45
2019-04-26T05:04:23.060Z,99079.03
2019-04-26T05:07:18.192Z,99117.91
2019-04-26T05:10:10.963Z,99106.54
2019-04-26T05:12:58.513Z,99120.91
2019-04-26T05:15:52.806Z,99130.33
2019-04-26T05:18:58.694Z,99148.23
2019-04-26T05:21:53.591Z,99134.73
2019-04-26T05:24:56.406Z,99129.12
2019-04-26T05:27:52.989Z,99125.43
2019-04-26T05:31:06.884Z,99135.18
2019-04-26T05:34:02.419Z,99142.36
2019-04-26T05:36:57.275Z,99141.66
2019-04-26T05:39:57.367Z,99156.22
2019-04-26T05:43:23.372Z,99162.59
2019-04-26T05:46:03.551Z,99173.98
2019-04-26T05:49:08.795Z,99156.70
2019-04-26T05:52:24.870Z,99149.97
2019-04-26T05:55:25.791Z,99156.09
2019-04-26T05:58:14.473Z,99143.22
2019-04-26T06:01:37.435Z,99137.02
2019-04-26T06:04:39.587Z,99157.53
2019-04-26T06:07:22.410Z,99155.03
2019-04-26T06:10:19.159Z,99159.88
2019-04-26T06:13:09.402Z,99167.38
2019-04-26T06:15:55.945Z,99156.39
2019-04-26T06:18:51.688Z,99161.11
2019-04-26T06:21:34.873Z,99161.05
2019-04-26T06:24:25.163Z,99172.09
2019-04-26T06:27:24.932Z,99165.49
2019-04-26T06:30:07.883Z,99171.45
2019-04-26T06:33:00.274Z,99163.48
2019-04-26T06:35:23.242Z,99168.77
2019-04-26T06:38:26.847Z,99174.56
2019-04-26T06:41:21.727Z,99184.55
2019-04-26T06:43:55.570Z,99189.33
2019-04-26T06:47:03.983Z,99180.41
2019-04-26T06:50:07.972Z,99174.19
2019-04-26T06:52:45.147Z,99171.39
2019-04-26T06:55:22.051Z,99180.21
2019-04-26T06:58:21.617Z,99199.91
2019-04-26T07:01:15.471Z,99218.55
2019-04-26T07:04:08.277Z,99233.02
2019-04-26T07:06:42.943Z,99217.94
2019-04-26T07:09:12.554Z,99207.02
2019-04-26T07:12:11.946Z,99194.99
2019-04-26T07:15:27.943Z,99220.09
2019-04-26T07:18:39.764Z,99211.39
2019-04-26T07:21:38.259Z,99204.94
2019-04-26T07:24:39.652Z,99194.33
2019-04-26T07:27:40.799Z,99213.06
2019-04-26T07:30:15.765Z,99213.16
2019-04-26T07:36:07.655Z,99209.89
2019-04-26T07:39:20.039Z,99216.45
2019-04-26T07:42:25.199Z,99221.43
2019-04-26T07:45:19.032Z,99222.59
2019-04-26T07:48:19.364Z,99228.19
2019-04-26T07:51:35.954Z,99238.13
2019-04-26T07:54:31.988Z,99242.59
2019-04-26T07:57:40.499Z,99232.92
2019-04-26T08:00:19.636Z,99219.05
2019-04-26T08:03:24.168Z,99227.52
2019-04-26T08:06:26.745Z,99228.36
2019-04-26T08:09:06.115Z,99230.92
2019-04-26T08:11:38.172Z,99238.56
2019-04-26T08:14:10.650Z,99243.09
2019-04-26T08:16:57.250Z,99234.97
2019-04-26T08:19:28.268Z,99221.45
2019-04-26T08:22:11.599Z,99221.99
2019-04-26T08:24:28.833Z,99249.88
2019-04-26T08:27:23.508Z,99267.34
2019-04-26T08:29:57.353Z,99272.99
2019-04-26T08:32:32.186Z,99268.55
2019-04-26T08:35:08.286Z,99277.55
2019-04-26T08:37:47.520Z,99271.66
2019-04-26T08:40:23.046Z,99268.73
2019-04-26T08:42:53.412Z,99280.16
2019-04-26T08:45:40.443Z,99282.16
2019-04-26T08:48:22.401Z,99278.58
2019-04-26T08:51:16.428Z,99287.59
2019-04-26T08:53:45.340Z,99289.06
2019-04-26T08:56:16.697Z,99283.09
2019-04-26T08:58:47.178Z,99281.67
2019-04-26T09:01:37.840Z,99283.30
2019-04-26T09:04:14.608Z,99291.05
2019-04-26T09:07:19.886Z,99284.53
2019-04-26T09:09:57.037Z,99294.75
2019-04-26T09:12:23.584Z,99300.15
2019-04-26T09:14:53.522Z,99300.73
2019-04-26T09:17:20.584Z,99309.62
2019-04-26T09:19:47.599Z,99316.82
2019-04-26T09:22:33.948Z,99317.71
2019-04-26T09:25:06.905Z,99316.75
2019-04-26T09:27:38.705Z,99309.48
2019-04-26T09:30:33.772Z,99315.32
2019-04-26T09:32:58.299Z,99310.50
2019-04-26T09:35:26.030Z,99301.84
2019-04-26T09:37:52.809Z,99311.03
2019-04-26T09:40:22.582Z,99306.27
2019-04-26T09:42:56.651Z,99314.47
2019-04-26T09:45:41.609Z,99302.20
2019-04-26T09:48:19.270Z,99316.55
2019-04-26T09:50:47.769Z,99322.45
2019-04-26T09:53:15.111Z,99312.53
2019-04-26T09:55:41.813Z,99338.92
2019-04-26T09:58:08.818Z,99339.02
2019-04-26T10:00:35.969Z,99353.63
2019-04-26T10:03:05.572Z,99354.92
2019-04-26T10:05:31.967Z,99352.49
2019-04-26T10:07:58.756Z,99368.69
2019-04-26T10:10:30.907Z,99337.37
2019-04-26T10:13:23.288Z,99359.31
2019-04-26T10:16:13.349Z,99358.17
2019-04-26T10:18:42.573Z,99363.28
2019-04-26T10:21:09.356Z,99346.12
2019-04-26T10:23:36.149Z,99331.37
2019-04-26T10:26:04.929Z,99359.29
2019-04-26T10:28:31.608Z,99365.32
2019-04-26T10:30:58.414Z,99375.00
2019-04-26T10:33:25.102Z,99378.93
2019-04-26T10:35:52.634Z,99381.22
2019-04-26T10:38:23.747Z,99375.25
2019-04-26T10:40:49.171Z,99378.77
2019-04-26T10:43:15.984Z,99382.98
2019-04-26T10:45:45.902Z,99383.15
2019-04-26T10:48:13.971Z,99382.14
2019-04-26T10:50:40.122Z,99384.37
2019-04-26T10:53:16.858Z,99381.63
2019-04-26T10:56:00.296Z,99382.59
2019-04-26T10:58:36.288Z,99377.06
2019-04-26T11:01:09.687Z,99385.73
2019-04-26T11:03:39.637Z,99383.26
2019-04-26T11:06:06.682Z,99386.98
2019-04-26T11:08:33.391Z,99384.30
2019-04-26T11:11:00.165Z,99395.80
2019-04-26T11:13:27.264Z,99391.42
2019-04-26T11:15:54.073Z,99401.02
2019-04-26T11:18:40.490Z,99398.87
2019-04-26T11:21:07.302Z,99398.55
2019-04-26T11:23:34.067Z,99398.95
2019-04-26T11:26:01.636Z,99401.67
2019-04-26T11:28:29.620Z,99402.19
2019-04-26T11:30:57.496Z,99405.43
2019-04-26T11:33:24.485Z,99400.97
2019-04-26T11:35:51.357Z,99396.61
2019-04-26T11:38:20.169Z,99386.53
2019-04-26T11:40:49.889Z,99391.78
2019-04-26T11:43:15.796Z,99390.28
2019-04-26T11:45:45.409Z,99390.38
2019-04-26T11:48:12.554Z,99385.44
2019-04-26T11:50:39.277Z,99397.15
2019-04-26T11:53:09.773Z,99389.92
2019-04-26T11:55:34.779Z,99414.97
2019-04-26T11:58:01.570Z,99416.25
2019-04-26T12:00:33.950Z,99425.88
2019-04-26T12:03:00.760Z,99421.25
2019-04-26T12:05:49.984Z,99416.56
2019-04-26T12:08:21.442Z,99422.84
2019-04-26T12:10:48.250Z,99430.89
2019-04-26T12:13:15.090Z,99431.23
2019-04-26T12:15:43.786Z,99428.83
2019-04-26T12:18:11.129Z,99433.59
2019-04-26T12:20:38.158Z,99430.63
2019-04-26T12:23:04.950Z,99416.78
2019-04-26T12:25:31.804Z,99434.11
2019-04-26T12:28:02.059Z,99445.72
2019-04-26T12:30:27.149Z,99448.83
2019-04-26T12:32:53.925Z,99453.47
2019-04-26T12:35:20.747Z,99452.06
2019-04-26T12:37:50.639Z,99441.25
2019-04-26T12:40:18.056Z,99435.84
2019-04-26T12:42:47.310Z,99448.35
2019-04-26T12:45:34.431Z,99435.19
2019-04-26T12:48:02.789Z,99438.81
2019-04-26T12:50:34.083Z,99440.80
2019-04-26T12:52:57.959Z,99435.73
2019-04-26T12:55:25.283Z,99445.14
2019-04-26T12:57:52.069Z,99440.68
2019-04-26T13:00:52.896Z,99445.05
2019-04-26T13:03:19.627Z,99438.94
2019-04-26T13:05:37.467Z,99437.08
2019-04-26T13:08:04.306Z,99439.77
2019-04-26T13:10:53.416Z,99431.28
2019-04-26T13:13:27.032Z,99434.89
2019-04-26T13:16:13.585Z,99439.08
2019-04-26T13:18:41.158Z,99441.59
2019-04-26T13:21:09.092Z,99446.97
2019-04-26T13:23:35.873Z,99448.00
2019-04-26T13:26:02.869Z,99452.61
2019-04-26T13:28:29.687Z,99448.45
2019-04-26T13:30:56.582Z,99460.33
2019-04-26T13:33:27.607Z,99465.23
2019-04-26T13:36:02.776Z,99463.56
2019-04-26T13:38:20.708Z,99462.72
2019-04-26T13:40:47.510Z,99465.70
2019-04-26T13:43:14.211Z,99457.50
2019-04-26T13:46:05.557Z,99452.55
2019-04-26T13:48:51.889Z,99452.08
2019-04-26T13:51:19.253Z,99449.66
2019-04-26T13:53:46.022Z,99447.71
2019-04-26T13:56:12.757Z,99452.52
2019-04-26T13:58:41.647Z,99444.67
2019-04-26T14:01:10.171Z,99447.66
2019-04-26T14:03:36.765Z,99443.48
2019-04-26T14:06:03.528Z,99448.43
2019-04-26T14:08:30.329Z,99452.63
2019-04-26T14:10:56.994Z,99460.32
2019-04-26T14:13:24.972Z,99475.98
2019-04-26T14:15:52.527Z,99478.41
2019-04-26T14:18:19.327Z,99473.50
2019-04-26T14:20:46.127Z,99480.92
2019-04-26T14:23:38.399Z,99495.52
2019-04-26T14:26:11.610Z,99501.70
2019-04-26T14:28:38.551Z,99498.02
2019-04-26T14:31:05.355Z,99490.22
2019-04-26T14:33:32.360Z,99492.49
2019-04-26T14:35:59.233Z,99488.77
2019-04-26T14:38:27.961Z,99483.57
2019-04-26T14:41:03.743Z,99485.14
2019-04-26T14:43:39.739Z,99490.02
2019-04-26T14:45:55.989Z,99484.75
2019-04-26T14:48:35.284Z,99483.66
2019-04-26T14:50:53.226Z,99473.66
2019-04-26T14:53:20.203Z,99470.58
2019-04-26T14:55:47.002Z,99476.95
2019-04-26T14:58:13.809Z,99481.31
2019-04-26T15:00:44.486Z,99489.55
2019-04-26T15:03:20.856Z,99487.08
2019-04-26T15:05:58.795Z,99481.12
2019-04-26T15:08:25.596Z,99493.16
2019-04-26T15:10:57.635Z,99502.61
2019-04-26T15:13:23.138Z,99503.99
2019-04-26T15:15:49.593Z,99507.50
2019-04-26T15:18:16.401Z,99504.62
2019-04-26T15:20:43.189Z,99505.66
2019-04-26T15:23:09.979Z,99504.19
2019-04-26T15:25:36.982Z,99506.89
2019-04-26T15:28:06.995Z,99505.27
2019-04-26T15:30:34.252Z,99515.84
2019-04-26T15:33:03.114Z,99511.33
2019-04-26T15:35:34.232Z,99503.61
2019-04-26T15:38:01.489Z,99501.77
2019-04-26T15:41:11.813Z,99505.13
2019-04-26T15:43:39.334Z,99510.36
2019-04-26T15:46:13.519Z,99504.69
2019-04-26T15:48:50.355Z,99505.98
2019-04-26T15:51:20.135Z,99508.98
2019-04-26T15:53:48.825Z,99501.94
2019-04-26T15:56:16.816Z,99512.93
2019-04-26T15:58:47.750Z,99516.22
2019-04-26T16:01:13.414Z,99513.80
2019-04-26T16:03:40.877Z,99514.70
2019-04-26T16:06:08.765Z,99513.56
2019-04-26T16:08:42.701Z,99510.03
2019-04-26T16:11:07.336Z,99511.50
2019-04-26T16:13:33.004Z,99511.41
2019-04-26T16:15:59.809Z,99517.52
2019-04-26T16:18:26.534Z,99512.72
2019-04-26T16:20:53.452Z,99505.06
2019-04-26T16:23:20.320Z,99507.83
2019-04-26T16:25:47.097Z,99505.47
2019-04-26T16:28:44.468Z,99503.70
2019-04-26T16:31:17.939Z,99505.81
2019-04-26T16:33:45.208Z,99507.11
2019-04-26T16:36:11.828Z,99502.76
2019-04-26T16:38:38.513Z,99513.49
2019-04-26T16:41:05.613Z,99505.73
2019-04-26T16:43:37.733Z,99518.11
2019-04-26T16:46:02.298Z,99516.06
2019-04-26T16:48:29.203Z,99509.02
2019-04-26T16:50:56.013Z,99504.59
2019-04-26T16:53:42.876Z,99502.75
2019-04-26T16:55:53.306Z,99504.73
2019-04-26T16:58:20.187Z,99507.40
2019-04-26T17:00:54.179Z,99487.30
2019-04-26T17:03:15.630Z,99501.34
2019-04-26T17:05:48.309Z,99498.42
2019-04-26T17:08:12.902Z,99505.92
2019-04-26T17:10:39.928Z,99517.14
2019-04-26T17:13:08.495Z,99519.13
2019-04-26T17:15:35.216Z,99517.89
2019-04-26T17:20:57.034Z,99511.55
2019-04-26T17:23:40.311Z,99529.25
2019-04-26T17:26:25.083Z,99525.15
2019-04-26T17:28:53.149Z,99529.94
2019-04-26T17:31:20.709Z,99535.39
2019-04-26T17:33:47.415Z,99541.76
2019-04-26T17:36:15.654Z,99545.25
2019-04-26T17:38:42.725Z,99546.61
2019-04-26T17:41:10.901Z,99548.09
2019-04-26T17:43:42.282Z,99558.06
2019-04-26T17:46:06.875Z,99557.81
2019-04-26T17:48:33.748Z,99557.27
2019-04-26T17:51:00.512Z,99552.94
2019-04-26T17:53:31.157Z,99551.11
2019-04-26T17:55:56.054Z,99553.98
2019-04-26T17:58:30.974Z,99561.91
2019-04-26T18:00:56.551Z,99558.02
2019-04-26T18:03:23.325Z,99563.05
2019-04-26T18:05:57.176Z,99566.66
2019-04-26T18:08:36.041Z,99562.00
2019-04-26T18:10:47.494Z,99557.22
2019-04-26T18:13:16.238Z,99555.98
2019-04-26T18:15:46.896Z,99551.75
2019-04-26T18:18:29.863Z,99550.73
2019-04-26T18:21:07.273Z,99545.69
2019-04-26T18:23:33.978Z,99544.38
2019-04-26T18:26:00.754Z,99548.61
2019-04-26T18:28:27.464Z,99543.28
2019-04-26T18:30:54.247Z,99544.02
2019-04-26T18:33:24.141Z,99545.05
2019-04-26T18:35:55.959Z,99546.29
2019-04-26T18:38:18.151Z,99544.77
2019-04-26T18:41:00.184Z,99532.31
2019-04-26T18:43:18.780Z,99531.84
2019-04-26T18:45:44.457Z,99526.98
2019-04-26T18:48:13.715Z,99530.55
2019-04-26T18:50:40.083Z,99532.27
2019-04-26T18:53:24.797Z,99525.17
2019-04-26T18:55:53.958Z,99523.13
2019-04-26T18:58:20.639Z,99523.92
2019-04-26T19:00:47.502Z,99527.73
2019-04-26T19:03:16.058Z,99536.99
2019-04-26T19:05:43.142Z,99549.08
2019-04-26T19:08:10.149Z,99563.06
2019-04-26T19:10:36.894Z,99570.84
2019-04-26T19:13:14.219Z,99577.61
2019-04-26T19:15:52.116Z,99566.59
2019-04-26T19:18:33.636Z,99556.73
2019-04-26T19:21:05.702Z,99566.41
2019-04-26T19:23:32.502Z,99573.16
2019-04-26T19:25:59.578Z,99572.84
2019-04-26T19:28:26.343Z,99580.63
2019-04-26T19:30:53.333Z,99584.93
2019-04-26T19:33:21.613Z,99586.27
2019-04-26T19:35:48.639Z,99601.17
2019-04-26T19:38:15.400Z,99601.16
2019-04-26T19:40:46.115Z,99603.98
2019-04-26T19:43:12.443Z,99606.28
2019-04-26T19:46:12.771Z,99608.64
2019-04-26T19:49:14.117Z,99605.25
2019-04-26T19:52:02.190Z,99612.45
2019-04-26T19:54:38.524Z,99625.69
2019-04-26T19:57:17.758Z,99635.45
2019-04-26T19:59:44.422Z,99635.42
2019-04-26T20:02:12.769Z,99630.04
2019-04-26T20:04:39.487Z,99628.08
2019-04-26T20:07:06.181Z,99631.04
2019-04-26T20:09:32.961Z,99629.88
2019-04-26T20:12:02.603Z,99625.92
2019-04-26T20:14:39.892Z,99622.19
2019-04-26T20:16:57.974Z,99625.84
2019-04-26T20:19:34.420Z,99620.09
2019-04-26T20:21:53.333Z,99619.76
2019-04-26T20:24:20.005Z,99619.43
2019-04-26T20:26:48.676Z,99615.04
2019-04-26T20:29:15.360Z,99617.77
2019-04-26T20:31:55.722Z,99625.38
2019-04-26T20:34:22.405Z,99608.23
2019-04-26T20:36:49.109Z,99611.55
2019-04-26T20:39:16.603Z,99615.67
2019-04-26T20:41:44.567Z,99580.64
2019-04-26T20:44:12.758Z,99605.53
2019-04-26T20:46:39.737Z,99598.00
2019-04-26T20:49:09.047Z,99599.63
2019-04-26T20:51:34.889Z,99595.33
2019-04-26T20:54:02.021Z,99592.09
2019-04-26T20:56:31.708Z,99585.38
2019-04-26T20:58:58.648Z,99583.20
2019-04-26T21:01:25.335Z,99580.98
2019-04-26T21:03:52.099Z,99575.02
2019-04-26T21:06:18.890Z,99573.36
2019-04-26T21:08:45.656Z,99579.27
2019-04-26T21:11:13.631Z,99581.98
2019-04-26T21:13:41.549Z,99579.20
2019-04-26T21:16:10.856Z,99573.78
2019-04-26T21:18:39.990Z,99576.38
2019-04-26T21:21:10.617Z,99570.02
2019-04-26T21:23:39.987Z,99568.42
2019-04-26T21:26:19.197Z,99574.47
2019-04-26T21:29:03.616Z,99575.41
2019-04-26T21:31:36.363Z,99567.04
2019-04-26T21:34:12.519Z,99560.80
2019-04-26T21:36:53.273Z,99566.50
2019-04-26T21:39:39.508Z,99539.22
2019-04-26T21:42:06.766Z,99561.14
2019-04-26T21:44:33.862Z,99566.47
2019-04-26T21:47:03.372Z,99555.94
2019-04-26T21:49:30.105Z,99559.86
2019-04-26T21:51:56.880Z,99563.50
2019-04-26T21:54:25.143Z,99573.77
2019-04-26T21:56:53.719Z,99574.22
2019-04-26T21:59:20.619Z,99572.08
2019-04-26T22:01:48.195Z,99566.20
2019-04-26T22:04:15.959Z,99574.53
2019-04-26T22:06:42.626Z,99577.84
2019-04-26T22:09:36.600Z,99580.69
2019-04-26T22:12:01.447Z,99580.33
2019-04-26T22:14:33.985Z,99584.84
2019-04-26T22:17:11.018Z,99586.27
2019-04-26T22:19:53.391Z,99586.44
2019-04-26T22:22:28.185Z,99585.19
2019-04-26T22:24:55.623Z,99581.81
2019-04-26T22:27:25.321Z,99569.80
2019-04-26T22:29:51.948Z,99579.30
2019-04-26T22:32:19.489Z,99577.22
2019-04-26T22:34:46.430Z,99582.86
2019-04-26T22:37:16.046Z,99577.48
2019-04-26T22:39:44.201Z,99578.41
2019-04-26T22:42:10.945Z,99578.98
2019-04-26T22:44:46.520Z,99585.24
2019-04-26T22:47:33.849Z,99579.58
2019-04-26T22:50:01.063Z,99594.05
2019-04-26T22:52:27.649Z,99586.29
2019-04-26T22:54:54.478Z,99591.46
2019-04-26T22:57:21.042Z,99586.41
2019-04-26T22:59:50.543Z,99582.87
2019-04-26T23:02:18.379Z,99581.00
2019-04-26T23:04:45.783Z,99585.82
2019-04-26T23:07:18.375Z,99574.31
2019-04-26T23:09:47.454Z,99597.92
2019-04-26T23:12:29.623Z,99572.77
2019-04-26T23:15:17.395Z,99561.52
2019-04-26T23:18:08.250Z,99559.27
2019-04-26T23:20:40.825Z,99569.61
2019-04-26T23:23:08.681Z,99574.56
2019-04-26T23:25:35.445Z,99582.66
2019-04-26T23:28:03.617Z,99572.91
2019-04-26T23:30:31.740Z,99572.10
2019-04-26T23:32:59.098Z,99571.48
2019-04-26T23:35:25.830Z,99569.27
2019-04-26T23:37:56.665Z,99568.44
2019-04-26T23:40:25.741Z,99567.03
2019-04-26T23:42:51.515Z,99565.27
2019-04-26T23:45:18.575Z,99573.36
2019-04-26T23:47:45.355Z,99571.61
2019-04-26T23:50:13.734Z,99569.73
2019-04-26T23:52:40.814Z,99564.92
2019-04-26T23:55:09.024Z,99565.03
2019-04-26T23:57:36.414Z,99567.09
